sensor_id;sensor_type;location;lat;lon;timestamp;pressure;altitude;pressure_sealevel;temperature;humidity
82395;BME280;72031;51.786;4.662;2024-03-02T00:01:19;99857.81;;;6.38;96.52
82395;BME280;72031;51.786;4.662;2024-03-02T00:03:45;99863.16;;;6.51;95.32
82395;BME280;72031;51.786;4.662;2024-03-02T00:06:10;99866.94;;;6.47;94.93
82395;BME280;72031;51.786;4.662;2024-03-02T00:08:36;99869.09;;;6.42;96.90
82395;BME280;72031;51.786;4.662;2024-03-02T00:11:02;99882.00;;;6.46;95.29
82395;BME280;72031;51.786;4.662;2024-03-02T00:13:28;99886.69;;;6.43;95.76
82395;BME280;72031;51.786;4.662;2024-03-02T00:15:56;99886.25;;;6.36;95.79
82395;BME280;72031;51.786;4.662;2024-03-02T00:18:31;99877.44;;;6.36;96.27
82395;BME280;72031;51.786;4.662;2024-03-02T00:20:57;99890.91;;;6.45;95.41
82395;BME280;72031;51.786;4.662;2024-03-02T00:23:24;99888.59;;;6.41;95.57
82395;BME280;72031;51.786;4.662;2024-03-02T00:25:52;99884.88;;;6.43;95.25
82395;BME280;72031;51.786;4.662;2024-03-02T00:28:26;99888.38;;;6.31;96.30
82395;BME280;72031;51.786;4.662;2024-03-02T00:31:09;99875.75;;;6.35;96.25
82395;BME280;72031;51.786;4.662;2024-03-02T00:33:42;99873.00;;;6.36;96.50
82395;BME280;72031;51.786;4.662;2024-03-02T00:36:08;99851.91;;;6.35;96.37
82395;BME280;72031;51.786;4.662;2024-03-02T00:38:49;99850.94;;;6.36;95.93
82395;BME280;72031;51.786;4.662;2024-03-02T00:41:30;99857.41;;;6.32;96.21
82395;BME280;72031;51.786;4.662;2024-03-02T00:44:05;99861.66;;;6.34;96.55
82395;BME280;72031;51.786;4.662;2024-03-02T00:46:37;99874.34;;;6.29;96.21
82395;BME280;72031;51.786;4.662;2024-03-02T00:49:05;99875.19;;;6.30;96.73
82395;BME280;72031;51.786;4.662;2024-03-02T00:51:32;99872.25;;;6.34;95.99
82395;BME280;72031;51.786;4.662;2024-03-02T00:54:01;99872.25;;;6.34;95.59
82395;BME280;72031;51.786;4.662;2024-03-02T00:56:30;99884.88;;;6.31;96.21
82395;BME280;72031;51.786;4.662;2024-03-02T00:58:56;99868.22;;;6.29;95.77
82395;BME280;72031;51.786;4.662;2024-03-02T01:01:22;99872.66;;;6.28;96.32
82395;BME280;72031;51.786;4.662;2024-03-02T01:03:48;99875.13;;;6.31;95.97
82395;BME280;72031;51.786;4.662;2024-03-02T01:06:17;99880.31;;;6.33;95.86
82395;BME280;72031;51.786;4.662;2024-03-02T01:08:43;99871.19;;;6.37;96.01
82395;BME280;72031;51.786;4.662;2024-03-02T01:11:09;99859.44;;;6.41;95.38
82395;BME280;72031;51.786;4.662;2024-03-02T01:13:34;99865.03;;;6.36;95.32
82395;BME280;72031;51.786;4.662;2024-03-02T01:16:00;99881.16;;;6.46;95.17
82395;BME280;72031;51.786;4.662;2024-03-02T01:18:26;99892.38;;;6.37;95.27
82395;BME280;72031;51.786;4.662;2024-03-02T01:20:52;99885.06;;;6.28;95.82
82395;BME280;72031;51.786;4.662;2024-03-02T01:23:24;99899.38;;;6.38;95.46
82395;BME280;72031;51.786;4.662;2024-03-02T01:25:51;99910.41;;;6.32;95.51
82395;BME280;72031;51.786;4.662;2024-03-02T01:28:17;99906.25;;;6.28;95.95
82395;BME280;72031;51.786;4.662;2024-03-02T01:30:44;99900.00;;;6.29;95.25
82395;BME280;72031;51.786;4.662;2024-03-02T01:33:10;99888.38;;;6.31;94.31
82395;BME280;72031;51.786;4.662;2024-03-02T01:35:36;99894.69;;;6.29;94.82
82395;BME280;72031;51.786;4.662;2024-03-02T01:38:03;99865.38;;;6.32;94.29
82395;BME280;72031;51.786;4.662;2024-03-02T01:40:29;99891.94;;;6.30;94.71
82395;BME280;72031;51.786;4.662;2024-03-02T01:42:54;99910.53;;;6.43;94.96
82395;BME280;72031;51.786;4.662;2024-03-02T01:45:21;99921.09;;;6.30;95.21
82395;BME280;72031;51.786;4.662;2024-03-02T01:47:47;99908.28;;;6.37;94.52
82395;BME280;72031;51.786;4.662;2024-03-02T01:50:13;99891.75;;;6.46;93.44
82395;BME280;72031;51.786;4.662;2024-03-02T01:52:39;99896.94;;;6.35;94.16
82395;BME280;72031;51.786;4.662;2024-03-02T01:55:05;99878.19;;;6.38;93.87
82395;BME280;72031;51.786;4.662;2024-03-02T01:57:33;99889.63;;;6.26;94.22
82395;BME280;72031;51.786;4.662;2024-03-02T02:00:00;99892.06;;;6.29;94.84
82395;BME280;72031;51.786;4.662;2024-03-02T02:02:25;99894.41;;;6.33;94.90
82395;BME280;72031;51.786;4.662;2024-03-02T02:04:51;99897.91;;;6.34;93.79
82395;BME280;72031;51.786;4.662;2024-03-02T02:07:16;99907.66;;;6.33;93.75
82395;BME280;72031;51.786;4.662;2024-03-02T02:09:42;99911.03;;;6.35;93.96
82395;BME280;72031;51.786;4.662;2024-03-02T02:12:08;99910.59;;;6.29;93.85
82395;BME280;72031;51.786;4.662;2024-03-02T02:14:34;99909.13;;;6.37;93.67
82395;BME280;72031;51.786;4.662;2024-03-02T02:17:00;99910.81;;;6.26;95.04
82395;BME280;72031;51.786;4.662;2024-03-02T02:19:25;99916.56;;;6.32;94.13
82395;BME280;72031;51.786;4.662;2024-03-02T02:21:51;99915.28;;;6.38;94.19
82395;BME280;72031;51.786;4.662;2024-03-02T02:24:16;99911.66;;;6.26;94.62
82395;BME280;72031;51.786;4.662;2024-03-02T02:26:41;99918.25;;;6.33;94.12
82395;BME280;72031;51.786;4.662;2024-03-02T02:29:07;99919.63;;;6.26;94.47
82395;BME280;72031;51.786;4.662;2024-03-02T02:31:37;99924.81;;;6.28;94.26
82395;BME280;72031;51.786;4.662;2024-03-02T02:34:04;99920.19;;;6.44;93.96
82395;BME280;72031;51.786;4.662;2024-03-02T02:36:30;99922.81;;;6.44;93.63
82395;BME280;72031;51.786;4.662;2024-03-02T02:38:56;99914.88;;;6.31;93.71
82395;BME280;72031;51.786;4.662;2024-03-02T02:41:21;99906.91;;;6.44;93.15
82395;BME280;72031;51.786;4.662;2024-03-02T02:43:47;99911.66;;;6.39;93.65
82395;BME280;72031;51.786;4.662;2024-03-02T02:46:13;99902.78;;;6.40;93.79
82395;BME280;72031;51.786;4.662;2024-03-02T02:48:39;99902.78;;;6.40;93.72
82395;BME280;72031;51.786;4.662;2024-03-02T02:51:04;99895.59;;;6.42;92.83
82395;BME280;72031;51.786;4.662;2024-03-02T02:53:29;99892.38;;;6.37;93.40
82395;BME280;72031;51.786;4.662;2024-03-02T02:55:55;99901.94;;;6.39;93.20
82395;BME280;72031;51.786;4.662;2024-03-02T02:58:21;99896.31;;;6.44;93.29
82395;BME280;72031;51.786;4.662;2024-03-02T03:00:46;99897.81;;;6.48;92.56
82395;BME280;72031;51.786;4.662;2024-03-02T03:03:12;99898.13;;;6.43;92.36
82395;BME280;72031;51.786;4.662;2024-03-02T03:05:37;99893.44;;;6.47;92.52
82395;BME280;72031;51.786;4.662;2024-03-02T03:08:03;99897.06;;;6.46;92.59
82395;BME280;72031;51.786;4.662;2024-03-02T03:10:28;99902.16;;;6.49;92.05
82395;BME280;72031;51.786;4.662;2024-03-02T03:12:54;99901.53;;;6.58;91.21
82395;BME280;72031;51.786;4.662;2024-03-02T03:15:21;99900.88;;;6.42;91.94
82395;BME280;72031;51.786;4.662;2024-03-02T03:17:47;99902.69;;;6.54;90.98
82395;BME280;72031;51.786;4.662;2024-03-02T03:20:12;99904.69;;;6.38;92.66
82395;BME280;72031;51.786;4.662;2024-03-02T03:22:38;99905.53;;;6.38;91.73
82395;BME280;72031;51.786;4.662;2024-03-02T03:25:05;99913.28;;;6.41;90.62
82395;BME280;72031;51.786;4.662;2024-03-02T03:27:30;99910.94;;;6.24;91.65
82395;BME280;72031;51.786;4.662;2024-03-02T03:29:57;99920.75;;;6.22;91.85
82395;BME280;72031;51.786;4.662;2024-03-02T03:32:22;99928.06;;;6.18;91.77
82395;BME280;72031;51.786;4.662;2024-03-02T03:34:48;99916.63;;;6.18;92.31
82395;BME280;72031;51.786;4.662;2024-03-02T03:37:14;99927.13;;;6.19;91.86
82395;BME280;72031;51.786;4.662;2024-03-02T03:39:40;99929.41;;;6.11;92.28
82395;BME280;72031;51.786;4.662;2024-03-02T03:42:05;99932.28;;;6.08;92.23
82395;BME280;72031;51.786;4.662;2024-03-02T03:44:31;99936.56;;;6.24;92.18
82395;BME280;72031;51.786;4.662;2024-03-02T03:46:57;99937.88;;;6.31;91.12
82395;BME280;72031;51.786;4.662;2024-03-02T03:49:22;99938.66;;;6.18;92.18
82395;BME280;72031;51.786;4.662;2024-03-02T03:51:48;99931.91;;;6.27;92.04
82395;BME280;72031;51.786;4.662;2024-03-02T03:54:13;99928.84;;;6.33;91.67
82395;BME280;72031;51.786;4.662;2024-03-02T03:56:39;99935.63;;;6.37;91.67
82395;BME280;72031;51.786;4.662;2024-03-02T03:59:04;99928.34;;;6.41;92.15
82395;BME280;72031;51.786;4.662;2024-03-02T04:01:30;99932.03;;;6.38;90.66
82395;BME280;72031;51.786;4.662;2024-03-02T04:03:59;99930.94;;;6.28;91.39
82395;BME280;72031;51.786;4.662;2024-03-02T04:06:27;99931.91;;;6.27;91.63
82395;BME280;72031;51.786;4.662;2024-03-02T04:08:52;99932.97;;;6.25;91.90
82395;BME280;72031;51.786;4.662;2024-03-02T04:11:24;99935.06;;;6.19;92.35
82395;BME280;72031;51.786;4.662;2024-03-02T04:13:50;99927.44;;;6.28;91.32
82395;BME280;72031;51.786;4.662;2024-03-02T04:16:15;99925.63;;;6.15;91.66
82395;BME280;72031;51.786;4.662;2024-03-02T04:18:50;99934.72;;;6.11;91.91
82395;BME280;72031;51.786;4.662;2024-03-02T04:21:15;99925.13;;;6.23;91.50
82395;BME280;72031;51.786;4.662;2024-03-02T04:23:42;99930.22;;;6.26;91.50
82395;BME280;72031;51.786;4.662;2024-03-02T04:26:08;99939.41;;;6.20;91.18
82395;BME280;72031;51.786;4.662;2024-03-02T04:28:33;99937.72;;;6.19;90.77
82395;BME280;72031;51.786;4.662;2024-03-02T04:30:59;99931.66;;;6.17;91.14
82395;BME280;72031;51.786;4.662;2024-03-02T04:33:24;99933.91;;;6.24;90.90
82395;BME280;72031;51.786;4.662;2024-03-02T04:35:49;99933.47;;;6.17;90.91
82395;BME280;72031;51.786;4.662;2024-03-02T04:38:15;99936.47;;;6.25;90.93
82395;BME280;72031;51.786;4.662;2024-03-02T04:40:40;99940.69;;;6.28;90.53
82395;BME280;72031;51.786;4.662;2024-03-02T04:43:06;99936.59;;;6.36;90.53
82395;BME280;72031;51.786;4.662;2024-03-02T04:45:32;99943.91;;;6.33;90.07
82395;BME280;72031;51.786;4.662;2024-03-02T04:47:57;99947.28;;;6.35;90.29
82395;BME280;72031;51.786;4.662;2024-03-02T04:50:25;99948.13;;;6.35;90.84
82395;BME280;72031;51.786;4.662;2024-03-02T04:52:51;99946.03;;;6.40;89.31
82395;BME280;72031;51.786;4.662;2024-03-02T04:55:16;99950.56;;;6.38;89.89
82395;BME280;72031;51.786;4.662;2024-03-02T04:57:50;99952.94;;;6.43;89.14
82395;BME280;72031;51.786;4.662;2024-03-02T05:00:16;99959.13;;;6.29;89.25
82395;BME280;72031;51.786;4.662;2024-03-02T05:02:42;99959.06;;;6.31;89.50
82395;BME280;72031;51.786;4.662;2024-03-02T05:05:08;99957.25;;;6.31;89.91
82395;BME280;72031;51.786;4.662;2024-03-02T05:07:33;99956.81;;;6.37;89.77
82395;BME280;72031;51.786;4.662;2024-03-02T05:09:58;99958.84;;;6.34;89.40
82395;BME280;72031;51.786;4.662;2024-03-02T05:12:24;99960.75;;;6.32;89.11
82395;BME280;72031;51.786;4.662;2024-03-02T05:15:13;99969.22;;;6.24;89.52
82395;BME280;72031;51.786;4.662;2024-03-02T05:17:40;99971.25;;;6.33;89.23
82395;BME280;72031;51.786;4.662;2024-03-02T05:20:06;99969.22;;;6.37;88.90
82395;BME280;72031;51.786;4.662;2024-03-02T05:22:38;99970.41;;;6.33;89.13
82395;BME280;72031;51.786;4.662;2024-03-02T05:25:06;99976.94;;;6.27;89.18
82395;BME280;72031;51.786;4.662;2024-03-02T05:27:32;99986.31;;;6.33;89.50
82395;BME280;72031;51.786;4.662;2024-03-02T05:30:01;99991.16;;;6.39;88.14
82395;BME280;72031;51.786;4.662;2024-03-02T05:32:27;99982.91;;;6.31;89.03
82395;BME280;72031;51.786;4.662;2024-03-02T05:34:52;99994.13;;;6.34;89.08
82395;BME280;72031;51.786;4.662;2024-03-02T05:37:18;99986.31;;;6.33;89.02
82395;BME280;72031;51.786;4.662;2024-03-02T05:39:43;99989.91;;;6.32;89.29
82395;BME280;72031;51.786;4.662;2024-03-02T05:42:09;99990.75;;;6.32;89.42
82395;BME280;72031;51.786;4.662;2024-03-02T05:44:38;99985.38;;;6.46;88.97
82395;BME280;72031;51.786;4.662;2024-03-02T05:47:03;99990.25;;;6.40;89.20
82395;BME280;72031;51.786;4.662;2024-03-02T05:49:29;99981.25;;;6.55;88.38
82395;BME280;72031;51.786;4.662;2024-03-02T05:52:04;99975.44;;;6.50;88.26
82395;BME280;72031;51.786;4.662;2024-03-02T05:54:29;99984.63;;;6.44;88.58
82395;BME280;72031;51.786;4.662;2024-03-02T05:56:56;99989.06;;;6.44;89.24
82395;BME280;72031;51.786;4.662;2024-03-02T05:59:21;99993.75;;;6.53;88.19
82395;BME280;72031;51.786;4.662;2024-03-02T06:01:48;99990.78;;;6.45;88.59
82395;BME280;72031;51.786;4.662;2024-03-02T06:04:16;99989.13;;;6.30;88.22
82395;BME280;72031;51.786;4.662;2024-03-02T06:06:42;99991.59;;;6.33;88.77
82395;BME280;72031;51.786;4.662;2024-03-02T06:09:08;99988.88;;;6.20;88.83
82395;BME280;72031;51.786;4.662;2024-03-02T06:11:38;99993.91;;;6.25;88.56
82395;BME280;72031;51.786;4.662;2024-03-02T06:14:05;99996.66;;;6.23;87.51
82395;BME280;72031;51.786;4.662;2024-03-02T06:16:31;99994.34;;;6.04;88.13
82395;BME280;72031;51.786;4.662;2024-03-02T06:19:04;100001.19;;;5.94;88.71
82395;BME280;72031;51.786;4.662;2024-03-02T06:21:30;100005.91;;;5.89;88.76
82395;BME280;72031;51.786;4.662;2024-03-02T06:23:56;100004.78;;;5.93;88.30
82395;BME280;72031;51.786;4.662;2024-03-02T06:26:21;100015.16;;;5.96;88.52
82395;BME280;72031;51.786;4.662;2024-03-02T06:28:47;100004.03;;;5.91;88.50
82395;BME280;72031;51.786;4.662;2024-03-02T06:31:13;100017.63;;;5.99;88.52
82395;BME280;72031;51.786;4.662;2024-03-02T06:33:38;100015.44;;;6.06;88.35
82395;BME280;72031;51.786;4.662;2024-03-02T06:36:05;100013.91;;;6.16;88.45
82395;BME280;72031;51.786;4.662;2024-03-02T06:38:34;100005.75;;;6.19;87.50
82395;BME280;72031;51.786;4.662;2024-03-02T06:40:59;100008.69;;;6.14;87.46
82395;BME280;72031;51.786;4.662;2024-03-02T06:43:25;100014.34;;;6.23;86.98
82395;BME280;72031;51.786;4.662;2024-03-02T06:45:50;100006.06;;;6.14;86.66
82395;BME280;72031;51.786;4.662;2024-03-02T06:48:27;100009.63;;;6.13;86.80
82395;BME280;72031;51.786;4.662;2024-03-02T06:50:55;100019.69;;;6.08;86.98
82395;BME280;72031;51.786;4.662;2024-03-02T06:53:21;100025.47;;;6.01;86.78
82395;BME280;72031;51.786;4.662;2024-03-02T06:55:47;100028.59;;;6.07;86.66
82395;BME280;72031;51.786;4.662;2024-03-02T06:58:14;100031.63;;;6.01;87.20
82395;BME280;72031;51.786;4.662;2024-03-02T07:00:40;100032.19;;;6.06;86.71
82395;BME280;72031;51.786;4.662;2024-03-02T07:03:06;100033.41;;;6.01;87.30
82395;BME280;72031;51.786;4.662;2024-03-02T07:05:31;100038.47;;;5.91;87.29
82395;BME280;72031;51.786;4.662;2024-03-02T07:07:57;100038.47;;;5.91;87.83
82395;BME280;72031;51.786;4.662;2024-03-02T07:10:23;100037.00;;;5.85;87.56
82395;BME280;72031;51.786;4.662;2024-03-02T07:12:48;100039.56;;;6.01;87.20
82395;BME280;72031;51.786;4.662;2024-03-02T07:15:14;100029.91;;;5.86;88.17
82395;BME280;72031;51.786;4.662;2024-03-02T07:17:57;100043.28;;;5.99;87.68
82395;BME280;72031;51.786;4.662;2024-03-02T07:20:23;100041.94;;;6.06;87.18
82395;BME280;72031;51.786;4.662;2024-03-02T07:22:48;100038.34;;;5.92;88.17
82395;BME280;72031;51.786;4.662;2024-03-02T07:25:14;100052.06;;;5.99;88.56
82395;BME280;72031;51.786;4.662;2024-03-02T07:27:46;100054.66;;;6.13;88.10
82395;BME280;72031;51.786;4.662;2024-03-02T07:30:14;100061.84;;;6.26;87.70
82395;BME280;72031;51.786;4.662;2024-03-02T07:32:41;100058.78;;;6.32;87.77
82395;BME280;72031;51.786;4.662;2024-03-02T07:35:11;100057.88;;;6.45;86.96
82395;BME280;72031;51.786;4.662;2024-03-02T07:37:47;100062.28;;;6.32;87.57
82395;BME280;72031;51.786;4.662;2024-03-02T07:40:13;100059.03;;;6.41;87.29
82395;BME280;72031;51.786;4.662;2024-03-02T07:42:42;100067.63;;;6.45;86.90
82395;BME280;72031;51.786;4.662;2024-03-02T07:45:08;100066.50;;;6.49;86.78
82395;BME280;72031;51.786;4.662;2024-03-02T07:47:34;100060.59;;;6.58;86.79
82395;BME280;72031;51.786;4.662;2024-03-02T07:50:15;100063.19;;;6.45;86.79
82395;BME280;72031;51.786;4.662;2024-03-02T07:52:40;100059.69;;;6.45;86.84
82395;BME280;72031;51.786;4.662;2024-03-02T07:55:21;100054.84;;;6.52;86.92
82395;BME280;72031;51.786;4.662;2024-03-02T07:58:07;100062.28;;;6.59;86.76
82395;BME280;72031;51.786;4.662;2024-03-02T08:00:33;100060.38;;;6.61;86.50
82395;BME280;72031;51.786;4.662;2024-03-02T08:03:11;100057.44;;;6.66;86.58
82395;BME280;72031;51.786;4.662;2024-03-02T08:05:37;100054.47;;;6.70;86.06
82395;BME280;72031;51.786;4.662;2024-03-02T08:08:04;100064.31;;;6.68;85.37
82395;BME280;72031;51.786;4.662;2024-03-02T08:10:29;100060.22;;;6.77;85.87
82395;BME280;72031;51.786;4.662;2024-03-02T08:12:55;100070.19;;;6.86;85.44
82395;BME280;72031;51.786;4.662;2024-03-02T08:15:20;100060.25;;;6.90;85.01
82395;BME280;72031;51.786;4.662;2024-03-02T08:17:46;100054.09;;;7.02;84.45
82395;BME280;72031;51.786;4.662;2024-03-02T08:20:15;100060.38;;;7.01;84.63
82395;BME280;72031;51.786;4.662;2024-03-02T08:22:40;100062.00;;;7.16;83.23
82395;BME280;72031;51.786;4.662;2024-03-02T08:25:07;100062.63;;;7.07;83.60
82395;BME280;72031;51.786;4.662;2024-03-02T08:27:34;100053.19;;;7.16;83.47
82395;BME280;72031;51.786;4.662;2024-03-02T08:30:01;100053.41;;;7.25;82.91
82395;BME280;72031;51.786;4.662;2024-03-02T08:32:28;100060.59;;;7.36;83.23
82395;BME280;72031;51.786;4.662;2024-03-02T08:34:55;100052.00;;;7.45;83.27
82395;BME280;72031;51.786;4.662;2024-03-02T08:37:21;100043.09;;;7.59;82.88
82395;BME280;72031;51.786;4.662;2024-03-02T08:39:46;100052.19;;;7.80;81.84
82395;BME280;72031;51.786;4.662;2024-03-02T08:42:12;100049.44;;;7.69;80.28
82395;BME280;72031;51.786;4.662;2024-03-02T08:44:38;100050.66;;;7.89;80.27
82395;BME280;72031;51.786;4.662;2024-03-02T08:47:03;100060.25;;;7.79;80.36
82395;BME280;72031;51.786;4.662;2024-03-02T08:49:29;100056.84;;;7.89;78.95
82395;BME280;72031;51.786;4.662;2024-03-02T08:51:55;100054.44;;;7.74;80.69
82395;BME280;72031;51.786;4.662;2024-03-02T08:54:21;100062.78;;;7.93;80.89
82395;BME280;72031;51.786;4.662;2024-03-02T08:56:49;100068.81;;;8.08;79.76
82395;BME280;72031;51.786;4.662;2024-03-02T08:59:16;100078.50;;;8.09;79.81
82395;BME280;72031;51.786;4.662;2024-03-02T09:01:41;100074.34;;;8.05;79.57
82395;BME280;72031;51.786;4.662;2024-03-02T09:04:07;100072.50;;;8.18;78.65
82395;BME280;72031;51.786;4.662;2024-03-02T09:06:36;100071.44;;;8.21;79.51
82395;BME280;72031;51.786;4.662;2024-03-02T09:09:01;100061.59;;;8.46;78.77
82395;BME280;72031;51.786;4.662;2024-03-02T09:11:45;100064.66;;;8.53;78.34
82395;BME280;72031;51.786;4.662;2024-03-02T09:14:11;100074.31;;;8.54;76.30
82395;BME280;72031;51.786;4.662;2024-03-02T09:16:37;100080.00;;;8.50;76.92
82395;BME280;72031;51.786;4.662;2024-03-02T09:19:03;100069.44;;;8.48;77.83
82395;BME280;72031;51.786;4.662;2024-03-02T09:21:35;100073.88;;;8.60;77.11
82395;BME280;72031;51.786;4.662;2024-03-02T09:24:09;100069.81;;;8.67;77.20
82395;BME280;72031;51.786;4.662;2024-03-02T09:26:35;100072.66;;;8.88;75.26
82395;BME280;72031;51.786;4.662;2024-03-02T09:29:01;100065.47;;;8.78;75.78
82395;BME280;72031;51.786;4.662;2024-03-02T09:31:46;100081.72;;;8.86;75.84
82395;BME280;72031;51.786;4.662;2024-03-02T09:34:12;100072.66;;;8.88;74.22
82395;BME280;72031;51.786;4.662;2024-03-02T09:36:37;100082.59;;;8.97;75.24
82395;BME280;72031;51.786;4.662;2024-03-02T09:39:03;100075.09;;;8.91;75.07
82395;BME280;72031;51.786;4.662;2024-03-02T09:41:32;100073.78;;;8.97;73.95
82395;BME280;72031;51.786;4.662;2024-03-02T09:43:58;100078.97;;;8.98;74.84
82395;BME280;72031;51.786;4.662;2024-03-02T09:46:25;100086.44;;;9.17;75.79
82395;BME280;72031;51.786;4.662;2024-03-02T09:48:51;100099.19;;;9.36;73.90
82395;BME280;72031;51.786;4.662;2024-03-02T09:51:16;100099.03;;;9.26;73.70
82395;BME280;72031;51.786;4.662;2024-03-02T09:53:45;100099.63;;;9.30;71.01
82395;BME280;72031;51.786;4.662;2024-03-02T09:56:12;100102.06;;;9.33;73.82
82395;BME280;72031;51.786;4.662;2024-03-02T09:58:38;100100.16;;;9.46;73.51
82395;BME280;72031;51.786;4.662;2024-03-02T10:01:06;100095.94;;;9.55;73.05
82395;BME280;72031;51.786;4.662;2024-03-02T10:03:33;100091.59;;;9.65;71.16
82395;BME280;72031;51.786;4.662;2024-03-02T10:08:46;100079.03;;;9.67;71.38
82395;BME280;72031;51.786;4.662;2024-03-02T10:11:31;100073.31;;;9.83;71.68
82395;BME280;72031;51.786;4.662;2024-03-02T10:14:12;100079.59;;;9.82;70.62
82395;BME280;72031;51.786;4.662;2024-03-02T10:16:40;100073.06;;;9.97;70.64
82395;BME280;72031;51.786;4.662;2024-03-02T10:19:20;100057.44;;;10.04;71.08
82395;BME280;72031;51.786;4.662;2024-03-02T10:21:51;100067.25;;;10.26;68.59
82395;BME280;72031;51.786;4.662;2024-03-02T10:24:18;100066.50;;;10.12;69.07
82395;BME280;72031;51.786;4.662;2024-03-02T10:26:43;100060.69;;;10.07;68.13
82395;BME280;72031;51.786;4.662;2024-03-02T10:29:10;100057.53;;;10.13;69.13
82395;BME280;72031;51.786;4.662;2024-03-02T10:31:40;100056.78;;;10.45;67.45
82395;BME280;72031;51.786;4.662;2024-03-02T10:34:07;100060.44;;;10.44;66.64
82395;BME280;72031;51.786;4.662;2024-03-02T10:36:36;100061.41;;;10.43;67.70
82395;BME280;72031;51.786;4.662;2024-03-02T10:39:06;100065.44;;;10.69;66.46
82395;BME280;72031;51.786;4.662;2024-03-02T10:41:34;100061.03;;;10.80;63.79
82395;BME280;72031;51.786;4.662;2024-03-02T10:44:06;100052.75;;;10.83;66.94
82395;BME280;72031;51.786;4.662;2024-03-02T10:46:34;100052.97;;;10.59;63.60
82395;BME280;72031;51.786;4.662;2024-03-02T10:49:02;100034.47;;;10.78;62.95
82395;BME280;72031;51.786;4.662;2024-03-02T10:51:31;100039.38;;;10.94;62.23
82395;BME280;72031;51.786;4.662;2024-03-02T10:53:58;100047.84;;;11.20;61.18
82395;BME280;72031;51.786;4.662;2024-03-02T10:56:31;100045.66;;;11.35;62.86
82395;BME280;72031;51.786;4.662;2024-03-02T11:01:43;100036.97;;;11.94;61.81
82395;BME280;72031;51.786;4.662;2024-03-02T11:04:13;100031.69;;;12.13;61.52
82395;BME280;72031;51.786;4.662;2024-03-02T11:06:48;100041.28;;;11.85;60.44
82395;BME280;72031;51.786;4.662;2024-03-02T11:09:14;100041.88;;;11.68;62.20
82395;BME280;72031;51.786;4.662;2024-03-02T11:11:43;100046.63;;;11.54;59.97
82395;BME280;72031;51.786;4.662;2024-03-02T11:14:14;100039.19;;;11.27;61.62
82395;BME280;72031;51.786;4.662;2024-03-02T11:16:42;100041.66;;;11.19;62.98
82395;BME280;72031;51.786;4.662;2024-03-02T11:19:12;100049.84;;;11.27;64.39
82395;BME280;72031;51.786;4.662;2024-03-02T11:21:38;100058.25;;;11.23;60.23
82395;BME280;72031;51.786;4.662;2024-03-02T11:24:37;100042.78;;;11.26;61.27
82395;BME280;72031;51.786;4.662;2024-03-02T11:27:05;100038.91;;;11.31;60.28
82395;BME280;72031;51.786;4.662;2024-03-02T11:32:22;100027.84;;;11.75;60.85
82395;BME280;72031;51.786;4.662;2024-03-02T11:34:50;100029.38;;;11.68;59.60
82395;BME280;72031;51.786;4.662;2024-03-02T11:37:18;100007.47;;;11.74;61.58
82395;BME280;72031;51.786;4.662;2024-03-02T11:39:44;100020.56;;;11.77;60.47
82395;BME280;72031;51.786;4.662;2024-03-02T11:42:14;100011.50;;;11.90;60.03
82395;BME280;72031;51.786;4.662;2024-03-02T11:44:43;100016.72;;;12.01;60.10
82395;BME280;72031;51.786;4.662;2024-03-02T11:47:12;99996.63;;;12.06;60.56
82395;BME280;72031;51.786;4.662;2024-03-02T11:49:42;99997.84;;;11.93;59.95
82395;BME280;72031;51.786;4.662;2024-03-02T11:52:10;99989.44;;;12.07;59.27
82395;BME280;72031;51.786;4.662;2024-03-02T11:54:38;100003.25;;;12.12;59.63
82395;BME280;72031;51.786;4.662;2024-03-02T11:57:16;99994.47;;;11.91;59.40
82395;BME280;72031;51.786;4.662;2024-03-02T11:59:43;99999.56;;;12.03;60.22
82395;BME280;72031;51.786;4.662;2024-03-02T12:02:19;99996.78;;;12.24;59.61
82395;BME280;72031;51.786;4.662;2024-03-02T12:04:47;99999.31;;;12.26;59.16
82395;BME280;72031;51.786;4.662;2024-03-02T12:07:23;99992.28;;;12.34;58.97
82395;BME280;72031;51.786;4.662;2024-03-02T12:09:59;99990.63;;;12.53;59.04
82395;BME280;72031;51.786;4.662;2024-03-02T12:12:25;99987.25;;;12.70;58.90
82395;BME280;72031;51.786;4.662;2024-03-02T12:14:53;99978.22;;;12.71;58.72
82395;BME280;72031;51.786;4.662;2024-03-02T12:17:22;99970.56;;;13.05;57.08
82395;BME280;72031;51.786;4.662;2024-03-02T12:19:48;99972.16;;;12.79;55.54
82395;BME280;72031;51.786;4.662;2024-03-02T12:22:14;99962.72;;;12.75;57.91
82395;BME280;72031;51.786;4.662;2024-03-02T12:24:41;99954.97;;;12.72;56.69
82395;BME280;72031;51.786;4.662;2024-03-02T12:27:11;99954.19;;;13.08;57.37
82395;BME280;72031;51.786;4.662;2024-03-02T12:29:38;99956.16;;;13.16;57.82
82395;BME280;72031;51.786;4.662;2024-03-02T12:32:05;99959.19;;;13.40;56.56
82395;BME280;72031;51.786;4.662;2024-03-02T12:34:31;99967.50;;;13.74;54.88
82395;BME280;72031;51.786;4.662;2024-03-02T12:36:57;99960.75;;;13.70;53.91
82395;BME280;72031;51.786;4.662;2024-03-02T12:39:23;99953.53;;;13.43;55.06
82395;BME280;72031;51.786;4.662;2024-03-02T12:41:49;99957.63;;;12.81;56.81
82395;BME280;72031;51.786;4.662;2024-03-02T12:44:20;99955.94;;;12.80;57.01
82395;BME280;72031;51.786;4.662;2024-03-02T12:46:46;99942.44;;;12.72;58.53
82395;BME280;72031;51.786;4.662;2024-03-02T12:49:14;99949.75;;;12.80;56.27
82395;BME280;72031;51.786;4.662;2024-03-02T12:51:43;99941.56;;;12.81;55.69
82395;BME280;72031;51.786;4.662;2024-03-02T12:54:11;99937.84;;;13.02;57.73
82395;BME280;72031;51.786;4.662;2024-03-02T12:56:37;99932.88;;;13.16;55.73
82395;BME280;72031;51.786;4.662;2024-03-02T12:59:04;99928.06;;;12.73;54.13
82395;BME280;72031;51.786;4.662;2024-03-02T13:01:30;99931.47;;;12.36;58.88
82395;BME280;72031;51.786;4.662;2024-03-02T13:03:57;99927.66;;;12.49;57.85
82395;BME280;72031;51.786;4.662;2024-03-02T13:06:24;99924.09;;;12.67;57.08
82395;BME280;72031;51.786;4.662;2024-03-02T13:08:55;99924.41;;;12.64;58.69
82395;BME280;72031;51.786;4.662;2024-03-02T13:11:22;99914.47;;;12.94;58.12
82395;BME280;72031;51.786;4.662;2024-03-02T13:13:51;99927.66;;;13.15;57.22
82395;BME280;72031;51.786;4.662;2024-03-02T13:16:18;99922.66;;;12.92;57.93